createdAt,value
2023-01-18T00:00:22.081Z,94
2023-01-18T00:05:22.028Z,94
2023-01-18T00:10:21.916Z,94
2023-01-18T00:15:21.644Z,94
2023-01-18T00:20:21.627Z,94
2023-01-18T00:25:21.616Z,94
2023-01-18T00:30:22.115Z,94
2023-01-18T00:35:21.412Z,94
2023-01-18T00:40:21.455Z,94
2023-01-18T00:45:21.408Z,94
2023-01-18T00:50:21.708Z,94
2023-01-18T00:55:21.743Z,94
2023-01-18T01:00:21.808Z,94
2023-01-18T01:05:21.893Z,94
2023-01-18T01:10:22.386Z,94
2023-01-18T01:15:21.775Z,94
2023-01-18T01:20:21.362Z,94
2023-01-18T01:25:21.790Z,94
2023-01-18T01:30:21.889Z,94
2023-01-18T01:35:21.542Z,94
2023-01-18T01:40:21.456Z,94
2023-01-18T01:45:21.394Z,94
2023-01-18T01:50:21.447Z,94
2023-01-18T01:55:21.658Z,94
2023-01-18T02:00:22.011Z,94
2023-01-18T02:05:22.111Z,94
2023-01-18T02:10:22.313Z,94
2023-01-18T02:15:22.341Z,94
2023-01-18T02:20:21.423Z,94
2023-01-18T02:25:21.489Z,94
2023-01-18T02:30:21.472Z,94
2023-01-18T02:35:21.444Z,94
2023-01-18T02:40:21.356Z,94
2023-01-18T02:45:21.494Z,94
2023-01-18T02:50:21.639Z,94
2023-01-18T02:55:21.695Z,94
2023-01-18T03:00:21.408Z,95
2023-01-18T03:05:21.792Z,95
2023-01-18T03:10:22.383Z,95
2023-01-18T03:15:21.722Z,95
2023-01-18T03:20:23.737Z,94
2023-01-18T03:25:21.544Z,94
2023-01-18T03:30:22.264Z,94
2023-01-18T03:35:21.350Z,94
2023-01-18T03:40:21.598Z,95
2023-01-18T03:45:22.085Z,95
2023-01-18T03:50:21.781Z,95
2023-01-18T03:55:21.544Z,95
2023-01-18T04:00:21.713Z,95
2023-01-18T04:05:22.236Z,95
2023-01-18T04:10:22.265Z,95
2023-01-18T04:15:21.523Z,95
2023-01-18T04:20:22.310Z,94
2023-01-18T04:25:22.364Z,94
2023-01-18T04:30:22.228Z,95
2023-01-18T04:35:21.647Z,95
2023-01-18T04:40:21.719Z,94
2023-01-18T04:45:21.815Z,94
2023-01-18T04:50:21.764Z,94
2023-01-18T04:55:21.704Z,94
2023-01-18T05:00:21.642Z,94
2023-01-18T05:05:21.607Z,94
2023-01-18T05:10:22.167Z,94
2023-01-18T05:15:21.626Z,94
2023-01-18T05:20:21.630Z,94
2023-01-18T05:25:21.735Z,94
2023-01-18T05:30:22.452Z,94
2023-01-18T05:35:21.796Z,94
2023-01-18T05:40:21.889Z,94
2023-01-18T05:45:22.002Z,94
2023-01-18T05:50:22.364Z,94
2023-01-18T05:55:22.112Z,94
2023-01-18T06:00:22.423Z,95
2023-01-18T06:05:21.506Z,95
2023-01-18T06:10:21.515Z,95
2023-01-18T06:15:21.526Z,95
2023-01-18T06:20:21.567Z,95
2023-01-18T06:25:21.691Z,95
2023-01-18T06:30:21.816Z,95
2023-01-18T06:35:22.108Z,95
2023-01-18T06:40:22.192Z,95
2023-01-18T06:45:22.154Z,95
2023-01-18T06:50:22.260Z,95
2023-01-18T06:55:22.386Z,95
2023-01-18T07:00:22.397Z,95
2023-01-18T07:05:21.876Z,95
2023-01-18T07:10:21.723Z,95
2023-01-18T07:15:23.012Z,95
2023-01-18T07:20:22.331Z,95
2023-01-18T07:25:21.565Z,95
2023-01-18T07:30:22.007Z,95
2023-01-18T07:35:21.504Z,95
2023-01-18T07:40:22.009Z,95
2023-01-18T07:45:22.505Z,95
2023-01-18T07:50:22.236Z,95
2023-01-18T07:55:22.229Z,95
2023-01-18T08:00:22.117Z,95
2023-01-18T08:05:22.266Z,95
2023-01-18T08:10:22.107Z,95
2023-01-18T08:15:22.497Z,95
2023-01-18T08:20:22.716Z,95
2023-01-18T08:25:22.396Z,95
2023-01-18T08:30:22.462Z,95
2023-01-18T08:35:23.745Z,95
2023-01-18T08:40:21.939Z,96
2023-01-18T08:45:21.866Z,96
2023-01-18T08:50:22.194Z,96
2023-01-18T08:55:22.299Z,96
2023-01-18T09:00:22.538Z,96
2023-01-18T09:05:21.572Z,96
2023-01-18T09:10:21.584Z,96
2023-01-18T09:15:21.925Z,96
2023-01-18T09:20:21.933Z,96
2023-01-18T09:25:21.795Z,96
2023-01-18T09:30:22.098Z,96
2023-01-18T09:35:22.121Z,96
2023-01-18T09:40:21.738Z,97
2023-01-18T09:45:22.576Z,97
2023-01-18T09:50:22.323Z,97
2023-01-18T09:55:21.980Z,97
2023-01-18T10:00:21.708Z,97
2023-01-18T10:05:22.059Z,97
2023-01-18T10:10:21.702Z,97
2023-01-18T10:15:22.407Z,97
2023-01-18T10:20:21.912Z,96
2023-01-18T10:25:21.919Z,96
2023-01-18T10:30:22.436Z,97
2023-01-18T10:35:22.195Z,97
2023-01-18T10:40:21.862Z,97
2023-01-18T10:45:22.110Z,97
2023-01-18T10:50:22.223Z,96
2023-01-18T10:55:21.938Z,96
2023-01-18T11:00:22.629Z,96
2023-01-18T11:05:22.078Z,96
2023-01-18T11:10:22.326Z,96
2023-01-18T11:15:22.247Z,96
2023-01-18T11:20:21.771Z,96
2023-01-18T11:25:21.810Z,96
2023-01-18T11:30:21.944Z,95
2023-01-18T11:35:22.055Z,95
2023-01-18T11:40:22.277Z,94
2023-01-18T11:45:22.634Z,94
2023-01-18T11:50:22.729Z,93
2023-01-18T11:55:21.949Z,93
2023-01-18T12:00:21.796Z,92
2023-01-18T12:05:22.457Z,92
2023-01-18T12:10:22.237Z,91
2023-01-18T12:15:22.367Z,91
2023-01-18T12:20:22.288Z,90
2023-01-18T12:25:22.343Z,90
2023-01-18T12:30:22.386Z,89
2023-01-18T12:35:24.059Z,89
2023-01-18T12:40:22.122Z,89
2023-01-18T12:45:22.312Z,89
2023-01-18T12:50:23.175Z,89
2023-01-18T12:55:22.414Z,89
2023-01-18T13:00:22.568Z,87
2023-01-18T13:05:21.877Z,87
2023-01-18T13:10:21.999Z,87
2023-01-18T13:15:21.954Z,87
2023-01-18T13:20:22.053Z,86
2023-01-18T13:25:23.570Z,86
2023-01-18T13:30:22.898Z,85
2023-01-18T13:35:24.362Z,85
2023-01-18T13:40:22.775Z,85
2023-01-18T13:45:21.849Z,85
2023-01-18T13:50:21.978Z,84
2023-01-18T13:55:22.241Z,84
2023-01-18T14:00:22.189Z,84
2023-01-18T14:05:25.175Z,84
2023-01-18T14:10:22.608Z,84
2023-01-18T14:15:22.555Z,84
2023-01-18T14:20:22.492Z,84
2023-01-18T14:25:22.316Z,84
2023-01-18T14:30:22.689Z,84
2023-01-18T14:35:25.459Z,84
2023-01-18T14:40:22.718Z,83
2023-01-18T14:45:22.220Z,83
2023-01-18T14:50:22.007Z,83
2023-01-18T14:55:22.240Z,83
2023-01-18T15:00:22.362Z,83
2023-01-18T15:05:22.265Z,83
2023-01-18T15:10:22.172Z,84
2023-01-18T15:15:22.589Z,84
2023-01-18T15:20:21.910Z,84
2023-01-18T15:25:21.931Z,84
2023-01-18T15:30:22.199Z,85
2023-01-18T15:35:21.959Z,85
2023-01-18T15:40:22.163Z,85
2023-01-18T15:45:22.152Z,85
2023-01-18T15:50:22.131Z,85
2023-01-18T15:55:22.478Z,85
2023-01-18T16:00:22.599Z,86
2023-01-18T16:05:22.342Z,86
2023-01-18T16:10:21.954Z,86
2023-01-18T16:15:22.028Z,86
2023-01-18T16:20:22.226Z,87
2023-01-18T16:25:22.248Z,87
2023-01-18T16:30:22.168Z,87
2023-01-18T16:35:22.257Z,87
2023-01-18T16:40:22.512Z,87
2023-01-18T16:45:22.611Z,87
2023-01-18T16:50:22.622Z,88
2023-01-18T16:55:22.568Z,88
2023-01-18T17:00:22.439Z,89
2023-01-18T17:05:22.502Z,89
2023-01-18T17:10:22.551Z,89
2023-01-18T17:15:22.498Z,89
2023-01-18T17:20:22.623Z,90
2023-01-18T17:25:22.571Z,90
2023-01-18T17:30:22.431Z,90
2023-01-18T17:35:22.392Z,90
2023-01-18T17:40:30.992Z,91
2023-01-18T17:45:22.537Z,91
2023-01-18T17:50:22.407Z,91
2023-01-18T17:55:27.461Z,91
2023-01-18T18:00:22.633Z,92
2023-01-18T18:05:22.660Z,92
2023-01-18T18:10:22.563Z,92
2023-01-18T18:15:22.657Z,92
2023-01-18T18:20:23.023Z,92
2023-01-18T18:25:22.795Z,92
2023-01-18T18:30:22.051Z,92
2023-01-18T18:35:25.922Z,92
2023-01-18T18:40:22.246Z,92
2023-01-18T18:45:22.216Z,92
2023-01-18T18:50:22.349Z,92
2023-01-18T18:55:22.301Z,92
2023-01-18T19:00:22.335Z,93
2023-01-18T19:05:22.242Z,93
2023-01-18T19:10:22.167Z,93
2023-01-18T19:15:22.549Z,93
2023-01-18T19:20:22.429Z,93
2023-01-18T19:25:22.469Z,93
2023-01-18T19:30:22.615Z,93
2023-01-18T19:35:22.578Z,93
2023-01-18T19:40:22.513Z,93
2023-01-18T19:45:27.873Z,93
2023-01-18T19:50:22.594Z,93
2023-01-18T19:55:22.575Z,93
2023-01-18T20:00:22.543Z,93
2023-01-18T20:05:22.532Z,93
2023-01-18T20:10:22.565Z,93
2023-01-18T20:15:22.511Z,93
2023-01-18T20:20:31.871Z,93
2023-01-18T20:25:22.669Z,93
2023-01-18T20:30:22.581Z,93
2023-01-18T20:35:22.250Z,93
2023-01-18T20:40:22.157Z,93
2023-01-18T20:45:22.040Z,93
2023-01-18T20:50:22.919Z,92
2023-01-18T20:55:22.561Z,92
2023-01-18T21:00:22.623Z,92
2023-01-18T21:05:22.125Z,92
2023-01-18T21:10:22.779Z,92
2023-01-18T21:15:22.781Z,92
2023-01-18T21:20:22.494Z,92
2023-01-18T21:25:22.552Z,92
2023-01-18T21:30:22.533Z,92
2023-01-18T21:35:22.184Z,92
2023-01-18T21:40:22.293Z,92
2023-01-18T21:45:22.257Z,92
2023-01-18T21:50:22.148Z,92
2023-01-18T21:55:22.191Z,92
2023-01-18T22:00:22.865Z,92
2023-01-18T22:05:22.225Z,92
2023-01-18T22:10:22.598Z,92
2023-01-18T22:15:22.448Z,92
2023-01-18T22:20:22.510Z,92
2023-01-18T22:25:22.503Z,92
2023-01-18T22:30:22.591Z,92
2023-01-18T22:35:22.528Z,92
2023-01-18T22:40:22.611Z,91
2023-01-18T22:45:22.615Z,91
2023-01-18T22:50:22.942Z,91
2023-01-18T22:55:22.277Z,91
2023-01-18T23:00:22.255Z,91
2023-01-18T23:05:22.897Z,91
2023-01-18T23:10:22.891Z,91
2023-01-18T23:15:22.836Z,91
2023-01-18T23:20:22.163Z,91
2023-01-18T23:25:22.300Z,91
2023-01-18T23:30:22.213Z,91
2023-01-18T23:35:22.718Z,91
2023-01-18T23:40:22.820Z,91
2023-01-18T23:45:22.823Z,91
2023-01-18T23:50:22.841Z,91
2023-01-18T23:55:22.209Z,91
